Time;durP1;ratioP1;P1;durP2;ratioP2;P2;SDS_P1;SDS_P2;PMS_P1;PMS_P2;Temp;Humidity;BMP_temperature;BMP_pressure;BME280_temperature;BME280_humidity;BME280_pressure;Samples;Min_cycle;Max_cycle;Signal;HPM_P1;HPM_P2
2022/04/14 00:02:26;;;;;;;11.10;10.10;;;12.90;99.90;;;;;;6278168;28;20335;-56
2022/04/14 00:05:29;;;;;;;12.17;11.00;;;12.90;99.90;;;;;;6287342;28;20648;-57
2022/04/14 00:08:32;;;;;;;11.10;10.13;;;12.90;99.90;;;;;;6281835;28;20314;-57
2022/04/14 00:11:35;;;;;;;11.17;10.13;;;12.80;99.90;;;;;;6277039;28;20777;-56
2022/04/14 00:14:38;;;;;;;12.20;10.87;;;12.80;99.90;;;;;;6278090;28;20359;-56
2022/04/14 00:17:42;;;;;;;11.57;10.67;;;12.80;99.90;;;;;;6286965;28;20491;-56
2022/04/14 00:20:44;;;;;;;12.20;10.60;;;12.80;99.90;;;;;;6286071;28;20371;-55
2022/04/14 00:23:47;;;;;;;12.33;10.17;;;12.70;99.90;;;;;;6278700;28;20287;-56
2022/04/14 00:26:50;;;;;;;10.33;9.63;;;12.70;99.90;;;;;;6287066;28;20331;-56
2022/04/14 00:29:53;;;;;;;10.90;10.00;;;12.70;99.90;;;;;;6285671;28;20312;-55
2022/04/14 00:32:57;;;;;;;12.53;11.23;;;12.70;99.90;;;;;;6287078;28;20359;-56
2022/04/14 00:36:00;;;;;;;11.70;10.73;;;12.70;99.90;;;;;;6286196;28;20612;-56
2022/04/14 00:39:03;;;;;;;12.40;11.17;;;12.60;99.90;;;;;;6276972;28;20276;-56
2022/04/14 00:42:10;;;;;;;12.07;10.87;;;12.60;99.90;;;;;;6285849;28;20287;-55
2022/04/14 00:45:14;;;;;;;10.73;9.93;;;12.60;99.90;;;;;;6274560;28;20238;-55
2022/04/14 00:48:18;;;;;;;11.30;10.40;;;12.50;99.90;;;;;;6271295;28;20328;-56
2022/04/14 00:51:21;;;;;;;10.97;10.03;;;12.40;99.90;;;;;;6287039;28;20753;-56
2022/04/14 00:54:23;;;;;;;11.43;10.27;;;12.40;99.90;;;;;;6283765;28;20256;-54
2022/04/14 00:57:26;;;;;;;11.07;10.13;;;12.40;99.90;;;;;;6285567;28;20366;-55
2022/04/14 01:00:29;;;;;;;11.47;10.47;;;12.40;99.90;;;;;;6279660;28;20360;-55
2022/04/14 01:03:33;;;;;;;12.73;11.63;;;12.30;99.90;;;;;;6282595;28;20316;-56
2022/04/14 01:06:38;;;;;;;11.30;10.37;;;12.30;99.90;;;;;;6266695;28;20674;-55
2022/04/14 01:09:41;;;;;;;11.13;10.23;;;12.30;99.90;;;;;;6282389;28;20226;-57
2022/04/14 01:12:49;;;;;;;11.53;10.27;;;12.20;99.90;;;;;;6275088;28;20278;-55
2022/04/14 01:15:58;;;;;;;10.70;9.80;;;12.20;99.90;;;;;;6287939;28;20233;-55
2022/04/14 01:19:03;;;;;;;10.90;10.03;;;12.20;99.90;;;;;;6283145;28;20322;-56
2022/04/14 01:22:08;;;;;;;10.83;9.93;;;12.20;99.90;;;;;;6286383;28;20249;-54
2022/04/14 01:25:13;;;;;;;10.57;9.57;;;12.20;99.90;;;;;;6285254;28;20294;-56
2022/04/14 01:28:15;;;;;;;11.10;10.30;;;12.10;99.90;;;;;;6282660;28;20538;-54
2022/04/14 01:31:18;;;;;;;11.37;10.27;;;12.10;99.90;;;;;;6285593;28;20292;-56
2022/04/14 01:34:21;;;;;;;13.43;12.23;;;12.10;99.90;;;;;;6280583;28;20456;-55
2022/04/14 01:37:24;;;;;;;10.93;10.10;;;12.10;99.90;;;;;;6273043;28;20290;-56
2022/04/14 01:40:28;;;;;;;11.90;10.80;;;12.00;99.90;;;;;;6284619;28;20785;-56
2022/04/14 01:43:31;;;;;;;11.23;10.33;;;12.00;99.90;;;;;;6284697;28;20229;-56
2022/04/14 01:46:34;;;;;;;10.47;9.53;;;12.00;99.90;;;;;;6281176;28;20307;-56
2022/04/14 01:49:36;;;;;;;11.80;10.70;;;11.90;99.90;;;;;;6272923;28;20275;-55
2022/04/14 01:52:41;;;;;;;13.23;10.83;;;11.90;99.90;;;;;;6284940;28;20701;-54
2022/04/14 01:55:45;;;;;;;11.03;10.13;;;11.90;99.90;;;;;;6276859;28;20344;-56
2022/04/14 01:58:47;;;;;;;11.33;10.53;;;11.80;99.90;;;;;;6271641;28;20558;-56
2022/04/14 02:01:50;;;;;;;10.07;9.37;;;11.70;99.90;;;;;;6285776;28;20249;-55
2022/04/14 02:04:53;;;;;;;11.17;10.27;;;11.70;99.90;;;;;;6276040;28;20269;-56
2022/04/14 02:07:56;;;;;;;10.93;10.03;;;11.60;99.90;;;;;;6285070;28;20230;-56
2022/04/14 02:11:00;;;;;;;11.77;10.63;;;11.60;99.90;;;;;;6283210;28;20732;-56
2022/04/14 02:14:02;;;;;;;12.93;11.40;;;11.60;99.90;;;;;;6276242;28;20291;-56
2022/04/14 02:17:06;;;;;;;11.93;10.83;;;11.60;99.90;;;;;;6285184;28;20264;-55
2022/04/14 02:20:09;;;;;;;12.93;11.80;;;11.50;99.90;;;;;;6275889;28;20328;-54
2022/04/14 02:23:12;;;;;;;12.27;11.27;;;11.50;99.90;;;;;;6280537;28;20232;-55
2022/04/14 02:26:16;;;;;;;12.77;11.63;;;11.50;99.90;;;;;;6284826;28;20225;-55
2022/04/14 02:29:19;;;;;;;11.43;10.57;;;11.40;99.90;;;;;;6280082;28;20328;-56
2022/04/14 02:32:22;;;;;;;12.63;11.43;;;11.40;99.90;;;;;;6281747;28;20363;-55
2022/04/14 02:35:25;;;;;;;11.60;10.60;;;11.40;99.90;;;;;;6284413;28;20267;-55
2022/04/14 02:38:27;;;;;;;12.23;11.07;;;11.30;99.90;;;;;;6279918;28;20540;-56
2022/04/14 02:41:31;;;;;;;11.70;10.60;;;11.30;99.90;;;;;;6280955;28;20229;-55
2022/04/14 02:44:34;;;;;;;12.27;11.07;;;11.30;99.90;;;;;;6284128;28;20298;-54
2022/04/14 02:47:37;;;;;;;13.43;12.20;;;11.20;99.90;;;;;;6280819;28;20282;-55
2022/04/14 02:50:43;;;;;;;14.90;12.73;;;11.20;99.90;;;;;;6276402;28;20742;-56
2022/04/14 02:53:46;;;;;;;14.37;12.60;;;11.30;99.90;;;;;;6283290;28;20716;-56
2022/04/14 02:56:50;;;;;;;12.83;11.73;;;11.30;99.90;;;;;;6267155;28;20238;-56
2022/04/14 02:59:52;;;;;;;12.87;11.87;;;11.30;99.90;;;;;;6272936;28;20705;-56
2022/04/14 03:02:55;;;;;;;14.83;13.50;;;11.20;99.90;;;;;;6281228;28;20727;-57
2022/04/14 03:05:58;;;;;;;19.07;15.67;;;11.30;99.90;;;;;;6284211;28;20233;-55
2022/04/14 03:09:00;;;;;;;17.00;15.17;;;11.30;99.90;;;;;;6276282;28;20222;-56
2022/04/14 03:12:05;;;;;;;16.67;14.93;;;11.30;99.90;;;;;;6277133;28;20243;-53
2022/04/14 03:15:08;;;;;;;16.70;15.00;;;11.30;99.90;;;;;;6277638;28;20727;-56
2022/04/14 03:18:11;;;;;;;15.97;13.80;;;11.40;99.90;;;;;;6274188;28;20316;-56
2022/04/14 03:21:14;;;;;;;16.83;15.17;;;11.40;99.90;;;;;;6281637;28;20225;-56
2022/04/14 03:24:16;;;;;;;16.43;14.83;;;11.60;99.90;;;;;;6281943;28;20225;-56
2022/04/14 03:27:20;;;;;;;18.40;14.43;;;11.70;99.90;;;;;;6262708;28;20291;-55
2022/04/14 03:30:23;;;;;;;16.97;15.00;;;12.00;99.90;;;;;;6276444;28;20240;-55
2022/04/14 03:33:26;;;;;;;15.97;13.57;;;12.00;99.90;;;;;;6249796;28;20726;-54
2022/04/14 03:36:29;;;;;;;15.47;13.80;;;12.00;99.90;;;;;;6267643;28;20756;-56
2022/04/14 03:39:31;;;;;;;14.93;13.33;;;12.00;99.90;;;;;;6274750;28;20360;-56
2022/04/14 03:42:36;;;;;;;14.77;13.00;;;12.00;99.90;;;;;;6279939;28;20544;-56
2022/04/14 03:45:39;;;;;;;15.23;13.17;;;12.00;99.90;;;;;;6279588;28;20352;-56
2022/04/14 03:48:42;;;;;;;12.90;11.83;;;11.90;99.90;;;;;;6278625;28;20596;-56
2022/04/14 03:51:45;;;;;;;16.13;12.17;;;11.90;99.90;;;;;;6278418;28;20287;-54
2022/04/14 03:54:48;;;;;;;12.80;11.50;;;11.80;99.90;;;;;;6279843;28;20329;-56
2022/04/14 03:57:52;;;;;;;12.83;11.53;;;11.80;99.90;;;;;;6286946;28;20322;-56
2022/04/14 04:00:55;;;;;;;12.80;11.50;;;11.80;99.90;;;;;;6280370;28;20233;-55
2022/04/14 04:03:57;;;;;;;12.13;11.03;;;11.80;99.90;;;;;;6278536;28;20727;-56
2022/04/14 04:07:00;;;;;;;11.13;10.10;;;11.80;99.90;;;;;;6281227;28;20237;-56
2022/04/14 04:10:04;;;;;;;11.10;10.00;;;11.70;99.90;;;;;;6268699;28;20242;-55
2022/04/14 04:13:08;;;;;;;11.93;10.40;;;11.70;99.90;;;;;;6277706;28;20225;-57
2022/04/14 04:16:11;;;;;;;11.80;10.80;;;11.70;99.90;;;;;;6279795;28;20388;-55
2022/04/14 04:19:14;;;;;;;11.10;10.20;;;11.60;99.90;;;;;;6276654;28;20233;-55
2022/04/14 04:22:17;;;;;;;11.47;10.33;;;11.60;99.90;;;;;;6278929;28;20370;-56
2022/04/14 04:25:19;;;;;;;11.30;10.40;;;11.60;99.90;;;;;;6287242;28;20419;-55
2022/04/14 04:28:30;;;;;;;10.63;9.60;;;11.60;99.90;;;;;;6277707;28;20630;-56
2022/04/14 04:31:33;;;;;;;10.70;9.70;;;11.50;99.90;;;;;;6278131;28;20237;-56
2022/04/14 04:34:36;;;;;;;12.37;10.80;;;11.60;99.90;;;;;;6279115;28;20726;-56
2022/04/14 04:37:39;;;;;;;13.47;9.90;;;11.60;99.90;;;;;;6277674;28;20245;-56
2022/04/14 04:40:42;;;;;;;11.43;9.83;;;11.70;99.90;;;;;;6280025;28;20559;-56
2022/04/14 04:43:46;;;;;;;10.00;9.17;;;11.70;99.90;;;;;;6285779;28;20239;-56
2022/04/14 04:46:48;;;;;;;10.90;10.00;;;11.80;99.90;;;;;;6286721;28;20295;-55
2022/04/14 04:49:51;;;;;;;11.40;10.30;;;11.80;99.90;;;;;;6284960;28;20233;-56
2022/04/14 04:52:54;;;;;;;10.37;9.37;;;11.90;99.90;;;;;;6286089;28;20373;-55
2022/04/14 04:55:57;;;;;;;11.57;9.70;;;11.90;99.90;;;;;;6290337;28;20351;-54
2022/04/14 04:59:01;;;;;;;11.03;9.87;;;12.10;99.90;;;;;;6283792;28;20319;-56
2022/04/14 05:02:05;;;;;;;10.60;9.60;;;12.10;99.90;;;;;;6285209;28;20765;-54
2022/04/14 05:05:09;;;;;;;15.47;10.53;;;12.20;99.90;;;;;;6286037;28;20754;-56
2022/04/14 05:08:11;;;;;;;12.77;9.90;;;12.20;99.90;;;;;;6288629;28;20226;-55
2022/04/14 05:11:15;;;;;;;18.30;11.00;;;12.30;99.90;;;;;;6282643;28;20301;-57
2022/04/14 05:14:19;;;;;;;13.93;10.73;;;12.30;99.90;;;;;;6287513;28;20713;-55
2022/04/14 05:17:21;;;;;;;21.57;11.00;;;12.30;99.90;;;;;;6280415;28;20328;-56
2022/04/14 05:20:24;;;;;;;14.87;10.03;;;12.40;99.90;;;;;;6287483;28;20256;-55
2022/04/14 05:23:27;;;;;;;9.77;8.77;;;12.40;99.90;;;;;;6283808;28;20304;-56
2022/04/14 05:26:29;;;;;;;10.43;9.33;;;12.40;99.90;;;;;;6284165;28;20318;-56
2022/04/14 05:29:35;;;;;;;8.93;8.10;;;12.50;99.90;;;;;;6286830;28;20318;-54
2022/04/14 05:32:38;;;;;;;9.10;8.30;;;12.50;99.90;;;;;;6290795;28;21008;-60
2022/04/14 05:35:43;;;;;;;23.97;10.83;;;12.50;99.90;;;;;;6287836;28;20618;-55
2022/04/14 05:38:46;;;;;;;18.40;10.67;;;12.60;99.90;;;;;;6271911;28;20378;-55
2022/04/14 05:41:48;;;;;;;18.23;9.73;;;12.70;99.90;;;;;;6280859;28;20326;-56
2022/04/14 05:44:52;;;;;;;17.50;9.80;;;12.70;99.90;;;;;;6289538;28;20244;-56
2022/04/14 05:47:56;;;;;;;9.63;8.83;;;12.80;99.90;;;;;;6280916;28;20237;-60
2022/04/14 05:50:59;;;;;;;10.07;9.27;;;12.90;99.90;;;;;;6285559;28;20232;-54
2022/04/14 05:54:02;;;;;;;10.10;9.07;;;12.90;99.90;;;;;;6285244;28;20279;-54
2022/04/14 05:57:05;;;;;;;10.77;9.67;;;13.10;99.90;;;;;;6293980;28;20240;-56
2022/04/14 06:00:13;;;;;;;13.43;8.70;;;13.20;99.90;;;;;;6285857;28;20305;-55
2022/04/14 06:03:16;;;;;;;10.70;9.80;;;13.30;99.90;;;;;;6285051;28;20320;-56
2022/04/14 06:06:19;;;;;;;10.30;9.00;;;13.40;99.90;;;;;;6284361;28;20687;-56
2022/04/14 06:09:22;;;;;;;9.77;8.80;;;13.50;99.90;;;;;;6274522;28;20722;-56
2022/04/14 06:12:25;;;;;;;10.20;9.20;;;13.60;99.90;;;;;;6277692;28;20277;-55
2022/04/14 06:15:31;;;;;;;10.47;9.37;;;13.70;99.90;;;;;;6284745;28;20833;-56
2022/04/14 06:18:33;;;;;;;11.03;8.90;;;13.60;99.90;;;;;;6283712;28;20686;-56
2022/04/14 06:21:36;;;;;;;11.50;10.30;;;13.70;99.90;;;;;;6282541;28;20324;-57
2022/04/14 06:24:39;;;;;;;11.13;9.63;;;13.80;99.90;;;;;;6283836;28;20237;-56
2022/04/14 06:27:42;;;;;;;14.93;9.57;;;13.80;99.90;;;;;;6288875;28;20928;-55
2022/04/14 06:30:47;;;;;;;10.30;9.40;;;13.90;99.90;;;;;;6281825;28;20617;-55
2022/04/14 06:33:49;;;;;;;10.37;9.47;;;13.90;99.90;;;;;;6279253;28;20619;-56
2022/04/14 06:36:52;;;;;;;10.33;9.40;;;14.00;99.90;;;;;;6282786;28;20717;-56
2022/04/14 06:39:55;;;;;;;13.17;9.50;;;14.10;99.90;;;;;;6273501;28;20806;-56
2022/04/14 06:43:18;;;;;;;13.17;9.90;;;14.30;99.90;;;;;;6281711;28;20493;-56
2022/04/14 06:46:22;;;;;;;11.17;10.20;;;14.50;99.90;;;;;;6291060;28;20793;-55
2022/04/14 06:49:25;;;;;;;10.87;9.73;;;14.60;99.90;;;;;;6278386;28;20757;-55
2022/04/14 06:52:28;;;;;;;10.60;9.50;;;14.80;99.90;;;;;;6292215;28;20252;-55
2022/04/14 06:55:31;;;;;;;11.50;10.03;;;14.80;99.90;;;;;;6286591;28;20236;-55
2022/04/14 06:58:35;;;;;;;10.27;9.13;;;14.90;99.90;;;;;;6279491;28;20237;-55
2022/04/14 07:01:39;;;;;;;11.20;10.17;;;15.00;99.90;;;;;;6282851;28;20315;-56
2022/04/14 07:04:42;;;;;;;10.60;9.17;;;15.10;99.90;;;;;;6282704;28;20237;-56
2022/04/14 07:07:45;;;;;;;10.33;9.13;;;15.30;99.90;;;;;;6284769;28;20325;-55
2022/04/14 07:10:48;;;;;;;10.90;9.20;;;15.30;99.90;;;;;;6274517;28;20746;-56
2022/04/14 07:13:50;;;;;;;9.03;8.30;;;15.50;99.90;;;;;;6285697;28;20235;-58
2022/04/14 07:16:55;;;;;;;15.00;9.87;;;15.60;99.90;;;;;;6273069;28;20228;-53
2022/04/14 07:19:58;;;;;;;11.87;10.20;;;15.70;99.90;;;;;;6276467;28;20733;-55
2022/04/14 07:23:02;;;;;;;10.23;9.30;;;15.90;99.90;;;;;;6277438;28;20228;-57
2022/04/14 07:26:06;;;;;;;9.50;8.70;;;16.00;99.90;;;;;;6278564;28;20237;-56
2022/04/14 07:29:09;;;;;;;11.23;9.63;;;16.20;99.90;;;;;;6279754;28;20225;-54
2022/04/14 07:32:13;;;;;;;13.80;9.13;;;16.30;99.90;;;;;;6278442;28;20611;-57
2022/04/14 07:35:16;;;;;;;10.20;8.80;;;16.30;99.90;;;;;;6281169;28;20395;-58
2022/04/14 07:38:19;;;;;;;10.37;9.27;;;16.20;99.90;;;;;;6281120;28;20347;-56
2022/04/14 07:41:22;;;;;;;10.43;9.37;;;16.10;99.90;;;;;;6277449;28;20674;-56
2022/04/14 07:44:25;;;;;;;12.20;9.37;;;16.20;99.90;;;;;;6279488;28;20251;-56
2022/04/14 07:47:29;;;;;;;12.73;7.90;;;16.30;99.90;;;;;;6279509;28;20620;-56
2022/04/14 07:50:32;;;;;;;9.57;8.77;;;16.50;99.90;;;;;;6279045;28;20489;-55
2022/04/14 07:53:38;;;;;;;8.97;8.10;;;16.60;99.90;;;;;;6281941;28;20510;-56
2022/04/14 07:56:40;;;;;;;11.20;8.50;;;16.70;99.90;;;;;;6285811;28;20301;-55
2022/04/14 07:59:43;;;;;;;8.73;8.13;;;16.70;99.90;;;;;;6281469;28;20274;-56
2022/04/14 08:02:53;;;;;;;10.40;9.37;;;16.90;99.90;;;;;;6277524;28;20275;-55
2022/04/14 08:05:56;;;;;;;9.13;8.43;;;17.10;99.90;;;;;;6290605;28;20503;-56
2022/04/14 08:09:06;;;;;;;9.27;8.30;;;17.20;99.90;;;;;;6273182;28;20359;-56
2022/04/14 08:12:10;;;;;;;11.07;8.40;;;17.40;99.90;;;;;;6284712;28;20612;-55
2022/04/14 08:15:13;;;;;;;9.67;8.83;;;17.40;99.90;;;;;;6288260;28;20331;-55
2022/04/14 08:18:17;;;;;;;8.53;7.70;;;17.50;99.90;;;;;;6262985;28;20368;-56
2022/04/14 08:21:20;;;;;;;8.37;7.77;;;17.50;99.90;;;;;;6287115;28;20320;-56
2022/04/14 08:24:23;;;;;;;8.07;7.37;;;17.40;99.90;;;;;;6283825;28;20253;-56
2022/04/14 08:27:27;;;;;;;9.13;7.53;;;17.60;99.90;;;;;;6282519;28;20237;-56
2022/04/14 08:30:32;;;;;;;8.33;7.50;;;17.70;99.90;;;;;;6284101;28;20249;-56
2022/04/14 08:33:37;;;;;;;7.47;6.77;;;17.80;99.90;;;;;;6282153;28;20390;-58
2022/04/14 08:36:40;;;;;;;7.17;6.57;;;17.80;99.90;;;;;;6286977;28;20282;-55
2022/04/14 08:39:43;;;;;;;7.27;6.53;;;17.90;99.90;;;;;;6281537;28;20244;-56
2022/04/14 08:42:52;;;;;;;7.03;6.33;;;17.90;99.90;;;;;;6281030;28;20706;-55
2022/04/14 08:45:57;;;;;;;8.80;6.80;;;18.00;99.90;;;;;;6285087;28;20316;-52
2022/04/14 08:49:01;;;;;;;6.43;5.80;;;18.10;99.90;;;;;;6283426;28;20796;-55
2022/04/14 08:52:05;;;;;;;5.80;5.33;;;18.20;99.90;;;;;;6290492;28;20398;-59
2022/04/14 08:55:10;;;;;;;5.50;5.00;;;18.20;99.90;;;;;;6289542;28;20233;-54
2022/04/14 08:58:14;;;;;;;4.77;4.40;;;18.20;99.90;;;;;;6285790;28;20277;-55
2022/04/14 09:01:17;;;;;;;5.00;4.60;;;18.10;99.90;;;;;;6281662;28;20837;-57
2022/04/14 09:04:29;;;;;;;5.90;4.70;;;18.20;99.90;;;;;;6288739;28;20230;-55
2022/04/14 09:07:33;;;;;;;6.53;4.33;;;18.50;99.90;;;;;;6280300;28;20257;-56
2022/04/14 09:10:36;;;;;;;4.03;3.70;;;18.70;99.90;;;;;;6284586;28;20275;-56
2022/04/14 09:13:43;;;;;;;3.63;3.53;;;18.90;99.90;;;;;;6284414;28;20240;-55
2022/04/14 09:16:48;;;;;;;3.80;3.50;;;18.90;99.90;;;;;;6276365;28;20260;-57
2022/04/14 09:19:52;;;;;;;4.97;4.50;;;18.80;99.90;;;;;;6282124;28;20284;-55
2022/04/14 09:23:15;;;;;;;5.00;4.23;;;18.90;99.90;;;;;;6282967;28;20734;-56
2022/04/14 09:26:23;;;;;;;4.93;4.50;;;18.90;99.90;;;;;;6282089;28;20530;-56
2022/04/14 09:29:26;;;;;;;7.43;4.83;;;19.10;99.90;;;;;;6275446;28;20244;-55
2022/04/14 09:32:32;;;;;;;6.93;4.20;;;19.20;99.90;;;;;;6276750;28;20307;-56
2022/04/14 09:35:36;;;;;;;3.97;3.77;;;19.40;99.90;;;;;;6285328;28;20334;-57
2022/04/14 09:38:53;;;;;;;4.13;3.93;;;19.50;99.90;;;;;;6293030;28;20229;-55
2022/04/14 09:41:56;;;;;;;5.20;4.67;;;19.70;99.90;;;;;;6280783;28;20317;-57
2022/04/14 09:45:18;;;;;;;4.43;3.90;;;19.70;99.90;;;;;;6284240;28;20283;-55
2022/04/14 09:49:00;;;;;;;4.90;4.47;;;19.70;99.90;;;;;;6283170;28;20355;-55
2022/04/14 09:52:08;;;;;;;6.43;3.77;;;19.70;99.90;;;;;;6281093;28;20328;-56
2022/04/14 09:55:12;;;;;;;3.47;3.20;;;19.50;99.90;;;;;;6285907;28;20238;-55
2022/04/14 09:58:17;;;;;;;3.40;3.20;;;19.60;99.90;;;;;;6278982;28;20852;-54
2022/04/14 10:01:21;;;;;;;3.93;3.83;;;19.30;99.90;;;;;;6280094;28;20890;-55
2022/04/14 10:04:31;;;;;;;3.50;3.40;;;19.30;99.90;;;;;;6285774;28;21095;-55
2022/04/14 10:07:35;;;;;;;10.40;4.37;;;19.20;99.90;;;;;;6286807;28;20276;-55
2022/04/14 10:10:40;;;;;;;4.90;4.53;;;19.10;99.90;;;;;;6278436;28;20738;-56
2022/04/14 10:13:43;;;;;;;4.40;4.10;;;19.10;99.90;;;;;;6282166;28;20240;-56
2022/04/14 10:16:47;;;;;;;6.47;4.50;;;19.10;99.90;;;;;;6273386;28;20261;-55
2022/04/14 10:19:51;;;;;;;4.57;4.37;;;19.10;99.90;;;;;;6286567;28;20239;-55
2022/04/14 10:22:56;;;;;;;4.03;3.60;;;19.10;99.90;;;;;;6282487;28;20237;-56
2022/04/14 10:30:05;;;;;;;3.53;3.30;;;18.70;99.90;;;;;;6163541;28;20645;-55
2022/04/14 10:33:07;;;;;;;3.40;3.20;;;18.60;99.90;;;;;;6273762;28;20256;-55
2022/04/14 10:36:10;;;;;;;3.97;3.70;;;18.40;99.90;;;;;;6282478;28;20306;-55
2022/04/14 10:39:20;;;;;;;4.67;4.00;;;18.50;99.90;;;;;;6283670;28;20230;-57
2022/04/14 10:42:26;;;;;;;4.00;3.90;;;18.60;99.90;;;;;;6286683;28;20290;-55
2022/04/14 10:45:29;;;;;;;4.00;3.70;;;18.60;99.90;;;;;;6283556;28;20269;-55
2022/04/14 10:48:33;;;;;;;3.90;3.80;;;18.60;99.90;;;;;;6281905;28;20259;-57
2022/04/14 10:51:36;;;;;;;4.10;3.80;;;18.70;99.90;;;;;;6283950;28;20739;-55
2022/04/14 10:54:58;;;;;;;3.27;3.17;;;18.70;99.90;;;;;;6285048;28;20477;-57
2022/04/14 10:58:01;;;;;;;3.33;3.23;;;18.60;99.90;;;;;;6271022;28;20230;-56
2022/04/14 11:01:04;;;;;;;4.00;2.93;;;18.60;99.90;;;;;;6278797;28;20609;-54
2022/04/14 11:04:23;;;;;;;3.40;3.10;;;18.70;99.90;;;;;;6276875;28;20249;-55
2022/04/14 11:07:26;;;;;;;4.37;2.80;;;18.80;99.90;;;;;;6278098;28;20326;-57
2022/04/14 11:10:30;;;;;;;8.03;2.60;;;18.80;99.90;;;;;;6280470;28;20247;-56
2022/04/14 11:14:05;;;;;;;2.67;2.47;;;18.80;99.90;;;;;;6274893;28;20352;-56
2022/04/14 11:17:07;;;;;;;2.37;2.27;;;18.70;99.90;;;;;;6277857;28;20464;-56
2022/04/14 11:20:13;;;;;;;2.50;2.40;;;18.50;99.90;;;;;;6288415;28;20320;-56
2022/04/14 11:23:24;;;;;;;2.40;2.30;;;18.40;99.90;;;;;;6277314;28;20459;-55
2022/04/14 11:26:35;;;;;;;2.60;2.40;;;18.20;99.90;;;;;;6276707;28;20498;-56
2022/04/14 11:29:39;;;;;;;3.10;2.80;;;18.00;99.90;;;;;;6277378;28;20244;-55
2022/04/14 11:32:42;;;;;;;2.70;2.70;;;17.70;99.90;;;;;;6280928;28;20241;-55
2022/04/14 11:36:10;;;;;;;3.37;2.53;;;17.60;99.90;;;;;;6277481;28;20247;-56
2022/04/14 11:39:25;;;;;;;2.53;2.40;;;17.60;99.90;;;;;;6278706;28;20268;-56
2022/04/14 11:42:29;;;;;;;2.53;2.50;;;17.50;99.90;;;;;;6276927;28;20252;-54
2022/04/14 11:45:33;;;;;;;3.03;2.73;;;17.50;99.90;;;;;;6276398;28;20248;-56
2022/04/14 11:48:36;;;;;;;3.30;2.87;;;17.50;99.90;;;;;;6277537;28;20327;-55
2022/04/14 11:51:44;;;;;;;2.83;2.67;;;17.30;99.90;;;;;;6282685;28;20829;-55
2022/04/14 11:54:46;;;;;;;5.37;2.97;;;17.10;99.90;;;;;;6273489;28;20264;-57
2022/04/14 11:57:52;;;;;;;3.17;2.97;;;16.90;99.90;;;;;;6273996;28;20236;-55
2022/04/14 12:00:55;;;;;;;2.70;2.60;;;16.90;99.90;;;;;;6279052;28;20230;-56
2022/04/14 12:03:58;;;;;;;2.50;2.30;;;16.90;99.90;;;;;;6294758;28;20840;-56
2022/04/14 12:07:01;;;;;;;2.87;2.63;;;16.80;99.90;;;;;;6278741;28;20317;-56
2022/04/14 12:10:06;;;;;;;2.93;2.30;;;16.70;99.90;;;;;;6280615;28;20789;-56
2022/04/14 12:13:11;;;;;;;5.07;2.87;;;16.60;99.90;;;;;;6286098;28;22452;-55
2022/04/14 12:16:15;;;;;;;2.53;2.33;;;16.50;99.90;;;;;;6279053;28;20240;-55
2022/04/14 12:19:18;;;;;;;2.60;2.50;;;16.40;99.90;;;;;;6273217;28;20328;-55
2022/04/14 12:22:23;;;;;;;2.07;2.07;;;16.20;99.90;;;;;;6287524;28;20312;-55
2022/04/14 12:25:27;;;;;;;2.50;2.40;;;16.10;99.90;;;;;;6285968;28;20326;-55
2022/04/14 12:28:32;;;;;;;2.30;2.30;;;15.90;99.90;;;;;;6272618;28;20334;-56
2022/04/14 12:31:34;;;;;;;2.57;2.37;;;15.80;99.90;;;;;;6274057;28;20244;-55
2022/04/14 12:34:42;;;;;;;3.17;2.53;;;15.70;99.90;;;;;;6280487;28;20399;-55
2022/04/14 12:37:45;;;;;;;5.90;2.70;;;15.70;99.90;;;;;;6286312;28;20250;-56
2022/04/14 12:40:55;;;;;;;3.27;3.03;;;15.70;99.90;;;;;;6275745;28;20484;-56
2022/04/14 12:43:59;;;;;;;3.10;3.00;;;15.70;99.90;;;;;;6281882;28;20787;-56
2022/04/14 12:47:02;;;;;;;4.33;3.73;;;15.60;99.90;;;;;;6282494;28;20729;-55
2022/04/14 12:50:06;;;;;;;3.80;3.70;;;15.50;99.90;;;;;;6286875;28;20245;-55
2022/04/14 12:53:10;;;;;;;4.63;4.43;;;15.50;99.90;;;;;;6283839;28;20244;-55
2022/04/14 12:56:13;;;;;;;4.80;4.50;;;15.40;99.90;;;;;;6277471;28;20320;-57
2022/04/14 12:59:18;;;;;;;5.40;5.20;;;15.30;99.90;;;;;;6282944;28;20712;-56
2022/04/14 13:02:23;;;;;;;5.97;5.53;;;15.20;99.90;;;;;;6286374;28;20346;-55
2022/04/14 13:05:29;;;;;;;5.23;4.83;;;15.10;1.00;;;;;;6284398;28;20248;-54
2022/04/14 13:08:33;;;;;;;5.67;5.30;;;15.00;1.00;;;;;;6285944;28;20964;-56
2022/04/14 13:11:42;;;;;;;7.63;6.00;;;14.90;1.00;;;;;;6285738;28;20244;-56
2022/04/14 13:14:47;;;;;;;5.50;5.30;;;14.80;1.00;;;;;;6278006;28;20336;-57
2022/04/14 13:18:05;;;;;;;6.40;5.90;;;14.80;1.00;;;;;;6271314;28;20226;-56
2022/04/14 13:21:08;;;;;;;5.10;4.80;;;14.70;1.00;;;;;;6281519;28;20244;-58
2022/04/14 13:24:11;;;;;;;5.23;4.87;;;14.60;1.00;;;;;;6283225;28;20301;-58
2022/04/14 13:27:14;;;;;;;5.07;4.77;;;14.50;1.00;;;;;;6283965;28;20634;-58
2022/04/14 13:30:20;;;;;;;4.93;4.53;;;14.40;1.00;;;;;;6281834;28;20374;-57
2022/04/14 13:33:24;;;;;;;3.83;3.73;;;14.30;1.00;;;;;;6280212;28;20244;-57
2022/04/14 13:36:26;;;;;;;3.87;3.50;;;14.10;1.00;;;;;;6283494;28;20237;-57
2022/04/14 13:39:29;;;;;;;3.70;3.40;;;14.00;1.00;;;;;;6286483;28;20234;-58
2022/04/14 13:42:33;;;;;;;3.30;3.10;;;13.90;1.00;;;;;;6281967;28;20255;-58
2022/04/14 13:45:37;;;;;;;3.07;2.93;;;13.90;1.00;;;;;;6281515;28;20898;-57
2022/04/14 13:48:40;;;;;;;3.13;2.87;;;13.90;1.00;;;;;;6281542;28;20236;-57
2022/04/14 13:51:43;;;;;;;3.20;3.00;;;13.80;1.00;;;;;;6276476;28;20930;-58
2022/04/14 13:54:46;;;;;;;4.00;2.60;;;13.80;1.00;;;;;;6278824;28;20233;-59
2022/04/14 13:57:48;;;;;;;3.20;2.90;;;13.70;1.00;;;;;;6282624;28;20321;-57
2022/04/14 14:00:53;;;;;;;3.00;2.80;;;13.60;1.00;;;;;;6280616;28;20329;-57
2022/04/14 14:03:56;;;;;;;4.50;4.30;;;13.60;1.00;;;;;;6284526;28;20237;-57
2022/04/14 14:06:58;;;;;;;3.50;2.97;;;13.50;1.00;;;;;;6281458;28;20248;-58
2022/04/14 14:10:01;;;;;;;2.80;2.80;;;13.50;1.00;;;;;;6277891;28;20238;-57
2022/04/14 14:13:04;;;;;;;2.83;2.73;;;13.50;1.00;;;;;;6282714;28;20797;-56
2022/04/14 14:16:08;;;;;;;2.70;2.57;;;13.40;1.00;;;;;;6272822;28;20245;-56
2022/04/14 14:19:17;;;;;;;2.47;2.47;;;13.40;1.00;;;;;;6279738;28;20236;-56
2022/04/14 14:22:19;;;;;;;3.00;2.90;;;13.30;1.00;;;;;;6281119;28;20340;-56
2022/04/14 14:25:23;;;;;;;3.40;3.30;;;13.30;1.00;;;;;;6282216;28;20313;-57
2022/04/14 14:28:25;;;;;;;3.63;3.47;;;13.30;1.00;;;;;;6284721;28;20267;-57
2022/04/14 14:31:29;;;;;;;4.23;4.13;;;13.40;1.00;;;;;;6276970;28;20383;-57
2022/04/14 14:34:32;;;;;;;4.43;4.23;;;13.30;1.00;;;;;;6284623;28;20248;-56
2022/04/14 14:37:35;;;;;;;4.63;4.33;;;13.50;1.00;;;;;;6286279;28;20966;-57
2022/04/14 14:40:37;;;;;;;6.30;5.87;;;13.60;1.00;;;;;;6275913;28;20254;-55
2022/04/14 14:43:40;;;;;;;6.20;5.90;;;13.70;1.00;;;;;;6282401;28;20290;-58
2022/04/14 14:46:44;;;;;;;6.17;5.77;;;13.60;1.00;;;;;;6290176;28;20722;-58
2022/04/14 14:49:47;;;;;;;5.80;5.50;;;13.60;1.00;;;;;;6281377;28;20244;-58
2022/04/14 14:52:52;;;;;;;5.17;4.97;;;13.70;1.00;;;;;;6283617;28;20319;-57
2022/04/14 14:55:55;;;;;;;5.97;5.57;;;13.80;1.00;;;;;;6281965;28;20366;-56
2022/04/14 14:59:16;;;;;;;4.97;4.77;;;13.80;1.00;;;;;;6283956;28;20237;-58
2022/04/14 15:02:21;;;;;;;4.27;4.17;;;13.80;1.00;;;;;;6279761;28;20237;-58
2022/04/14 15:05:24;;;;;;;3.50;3.30;;;13.80;1.00;;;;;;6286982;28;20305;-57
2022/04/14 15:08:27;;;;;;;5.93;3.73;;;13.90;1.00;;;;;;6275460;28;20306;-56
2022/04/14 15:11:29;;;;;;;3.93;3.73;;;13.90;1.00;;;;;;6289147;28;20275;-56
2022/04/14 15:14:32;;;;;;;4.00;3.70;;;13.90;1.00;;;;;;6282143;28;20777;-56
2022/04/14 15:17:36;;;;;;;4.27;3.97;;;13.80;1.00;;;;;;6286121;28;20229;-58
2022/04/14 15:20:39;;;;;;;3.90;3.80;;;13.80;1.00;;;;;;6286590;28;20258;-58
2022/04/14 15:23:42;;;;;;;4.20;3.90;;;13.80;1.00;;;;;;6287971;28;20747;-56
2022/04/14 15:26:44;;;;;;;4.57;4.27;;;13.80;1.00;;;;;;6277792;28;20784;-57
2022/04/14 15:29:47;;;;;;;4.60;4.40;;;13.80;1.00;;;;;;6279558;28;20323;-56
2022/04/14 15:32:53;;;;;;;4.60;4.40;;;13.80;1.00;;;;;;6281512;28;20358;-57
2022/04/14 15:35:56;;;;;;;4.73;4.50;;;13.80;1.00;;;;;;6282289;28;20913;-56
2022/04/14 15:38:59;;;;;;;5.27;4.90;;;13.90;1.00;;;;;;6276546;28;20664;-57
2022/04/14 15:42:02;;;;;;;4.90;4.53;;;13.90;1.00;;;;;;6275937;28;20225;-56
2022/04/14 15:45:06;;;;;;;4.90;4.50;;;13.90;1.00;;;;;;6288486;28;20293;-57
2022/04/14 15:48:12;;;;;;;5.50;5.13;;;13.90;1.00;;;;;;6285597;28;20240;-56
2022/04/14 15:51:15;;;;;;;5.23;4.83;;;13.90;1.00;;;;;;6285720;28;20332;-57
2022/04/14 15:54:18;;;;;;;5.23;4.93;;;13.90;1.00;;;;;;6283776;28;20321;-57
2022/04/14 15:57:21;;;;;;;4.93;4.73;;;13.90;1.00;;;;;;6282108;28;20332;-56